Unity Plaza, Connecticut
Current Conditions -  °F | °C
As of 3:00 AM on Monday 24 Nov 2014 (Local Time) from KHFD Reporting Station
Light Rain Light Rain  
Wind Chill: 41°   Ceiling: 2400
Heat Index: 44°   Visibility: 4mi
Dew Point: 38°   Wind: 6mph
Humidity: 79%   Direction: 230°SW
Pressure: 29.94"   Gusts: NA
Location:  41.7893°N, 72.6669°W
Report Text: KHFD 240800Z AUTO 23005KT 4SM -RA BKN024 OVC037 07/03 A2994 RMK AO2 P0000 T00670033
Loading
Personal Weather Stations






























Interactive Weather Map New forecast layout! Learn more

10-Day Weather Forecast

Advertisements
Track Severe Weather on mobile